Terminal Aerodrome Forecast
Issued by NWS

Home | Current Version | Previous Version | Graphics & Text | Print | Product List | Glossary On
Versions: 1 2 3 4 5 6 7 8 9 10 11 12 13 14 15 16 17 18 19
000
FTUS43 KTOP 011100
TAFFOE
TAF
KFOE 011126Z 0112/0212 27003KT P6SM SCT013 BKN040
      TEMPO 0112/0116 6SM -SN BKN023
     FM011600 29006KT P6SM BKN018
     FM020100 35003KT P6SM BKN250=

USA.gov is the U.S. government's official web portal to all federal, state and local government web resources and services.